WetterOnline ( https://www.wetteronline.de )

Wetter aktuell Plön

Aktuelles Wetter: Dörnick (28m)

6-stündlich | Neueste Meldungen
Ortszeit Temperatur Wetter
So, 23.01. 1:00 5.5° C Sprühregen
Sa, 22.01. 19:00 5.9° C bedeckt
Sa, 22.01. 13:00 6.0° C bedeckt
Sa, 22.01. 7:00 3.8° C bedeckt
Sa, 22.01. 1:00 5.3° C bewölkt
Fr, 21.01. 19:00 3.9° C leichter Regen
Fr, 21.01. 13:00 3.0° C leicht bewölkt
Fr, 21.01. 7:00 -0.9° C fast wolkenlos
Ortszeit Temperatur Wetter
So, 23.01. 4:00 5.8° C bedeckt
So, 23.01. 3:50 5.8° C Dunst
So, 23.01. 3:40 5.8° C Dunst
So, 23.01. 3:30 5.8° C bewölkt
So, 23.01. 3:20 5.8° C Sprühregen
So, 23.01. 3:10 5.7° C Dunst
So, 23.01. 3:00 5.7° C Sprühregen
So, 23.01. 2:30 5.6° C bewölkt
So, 23.01. 2:00 5.6° C Sprühregen
So, 23.01. 1:30 5.5° C bedeckt
So, 23.01. 1:00 5.5° C Sprühregen
Ortszeit Relative Feuchte Sichtweite
So, 23.01. 1:00 96% 7 km
Sa, 22.01. 19:00 93% 35 km
Sa, 22.01. 13:00 93% 19 km
Sa, 22.01. 7:00 97% 8 km
Sa, 22.01. 1:00 93% 35 km
Fr, 21.01. 19:00 97% 8 km
Fr, 21.01. 13:00 69% 40 km
Fr, 21.01. 7:00 74% 35 km
Ortszeit Relative Feuchte Sichtweite
So, 23.01. 4:00 97% 4.9 km
So, 23.01. 3:50 97% -
So, 23.01. 3:40 96% -
So, 23.01. 3:30 97% 3.4 km
So, 23.01. 3:20 97% -
So, 23.01. 3:10 97% -
So, 23.01. 3:00 97% 3.2 km
So, 23.01. 2:30 97% 14 km
So, 23.01. 2:00 96% 8 km
So, 23.01. 1:30 96% 8 km
So, 23.01. 1:00 96% 7 km
Ortszeit Niederschlagsmenge Niederschlagsart
So, 23.01. 1:00 0.2 l/m2 in 6 Std. Regen
Sa, 22.01. 19:00 1 l/m2 in 12 Std. Regen
Sa, 22.01. 13:00 0.8 l/m2 in 6 Std. Regen
Sa, 22.01. 7:00 0.3 l/m2 in 12 Std. -
Sa, 22.01. 1:00 0.3 l/m2 in 6 Std. Regen
Fr, 21.01. 19:00 0.1 l/m2 in 12 Std. Regen
Fr, 21.01. 13:00 0.0 l/m2 in 6 Std. -
Fr, 21.01. 7:00 0.0 l/m2 in 12 Std. -
Ortszeit Niederschlagsmenge Niederschlagsart
So, 23.01. 4:00 0.1 l/m2 in 1 Std. Regen
So, 23.01. 3:50 keine Meldung -
So, 23.01. 3:40 keine Meldung -
So, 23.01. 3:30 0.1 l/m2 in 1 Std. Schnee
So, 23.01. 3:20 keine Meldung -
So, 23.01. 3:10 keine Meldung -
So, 23.01. 3:00 0.3 l/m2 in 1 Std. Regen
So, 23.01. 2:30 0.2 l/m2 in 1 Std. Schnee
So, 23.01. 2:00 0.1 l/m2 in 1 Std. Sprühregen
So, 23.01. 1:30 0.1 l/m2 in 1 Std. Schnee
So, 23.01. 1:00 0.1 l/m2 in 1 Std. Regen
Ortszeit Stärke Spitze Richtung
km/h Bft. km/h Grad Sektor
So, 23.01. 1:00 13 3 28 270° W
Sa, 22.01. 19:00 14 3 25 290° W
Sa, 22.01. 13:00 7 2 20 300° NW
Sa, 22.01. 7:00 0 0 18 - -
Sa, 22.01. 1:00 11 2 29 310° NW
Fr, 21.01. 19:00 17 3 30 280° W
Fr, 21.01. 13:00 14 3 25 270° W
Fr, 21.01. 7:00 14 3 25 310° NW
Ortszeit Stärke Spitze Richtung
km/h Bft. km/h Grad Sektor
So, 23.01. 4:00 13 3 20 280° W
So, 23.01. 3:50 13 3 - 280° W
So, 23.01. 3:40 13 3 - 280° W
So, 23.01. 3:30 11 2 18 290° W
So, 23.01. 3:20 11 2 - 290° W
So, 23.01. 3:10 13 3 - 290° W
So, 23.01. 3:00 11 2 22 280° W
So, 23.01. 2:30 11 2 20 270° W
So, 23.01. 2:00 14 3 22 270° W
So, 23.01. 1:30 13 3 22 270° W
So, 23.01. 1:00 13 3 20 270° W
Ortszeit Untergrenze Bedeckung Gattung
total tief tief mittel hoch
So, 23.01. 1:00 150 m 7/8 8/8 - - -
Sa, 22.01. 19:00 240 m 8/8 8/8 - - -
Sa, 22.01. 13:00 210 m 8/8 8/8 - - -
Sa, 22.01. 7:00 180 m 8/8 8/8 - - -
Sa, 22.01. 1:00 300 m 7/8 7/8 - - -
Fr, 21.01. 19:00 90 m 8/8 8/8 - - -
Fr, 21.01. 13:00 720 m 3/8 3/8 - - -
Fr, 21.01. 7:00 8400 m 2/8 0/8 - - -
Ortszeit Bedeckungsgrad in Achtel und Wolkenuntergrenze
So, 23.01. 4:00 7(150m) 7(270m) 8(540m)
So, 23.01. 3:50 7(150m) 7(270m) 8(540m)
So, 23.01. 3:40 6(150m) 7(270m) 8(540m)
So, 23.01. 3:30 7(150m) 7(270m)
So, 23.01. 3:20 7(150m) 7(270m)
So, 23.01. 3:10 7(150m) 7(270m)
So, 23.01. 3:00 7(150m) 8(240m)
So, 23.01. 2:30 3(120m) 7(240m) 7(360m)
So, 23.01. 2:00 2(90m) 7(330m) 8(660m)
So, 23.01. 1:30 2(120m) 7(360m) 8(660m)
So, 23.01. 1:00 4(150m) 7(270m) 8(510m)
Ortszeit Luftdruck NN (hPa) Tendenz (hPa in 3 Std.)
So, 23.01. 1:00 1030 + 0,3
Sa, 22.01. 19:00 1029 + 0,8
Sa, 22.01. 13:00 1029 + 0,6
Sa, 22.01. 7:00 1027 + 1,0
Sa, 22.01. 1:00 1025 + 1,2
Fr, 21.01. 19:00 1024 - 1,3
Fr, 21.01. 13:00 1027 - 0,2
Fr, 21.01. 7:00 1026 + 0,9
Ortszeit Luftdruck NN (hPa) Tendenz (hPa in 3 Std.)
So, 23.01. 4:00 1031 + 0,4
So, 23.01. 3:50 1031 keine Meldung
So, 23.01. 3:40 1031 keine Meldung
So, 23.01. 3:30 1031 + 0,5
So, 23.01. 3:20 1031 keine Meldung
So, 23.01. 3:10 1031 keine Meldung
So, 23.01. 3:00 1031 + 0,4
So, 23.01. 2:30 1031 + 0,5
So, 23.01. 2:00 1031 + 0,6
So, 23.01. 1:30 1030 + 0,2
So, 23.01. 1:00 1030 + 0,3
Ortszeit Schneehöhe (cm)
So, 23.01. 1:00 0
Sa, 22.01. 19:00 0
Sa, 22.01. 13:00 0
Sa, 22.01. 7:00 0
Sa, 22.01. 1:00 0
Fr, 21.01. 19:00 0
Fr, 21.01. 13:00 0
Fr, 21.01. 7:00 0
Ortszeit Schneehöhe (cm)
So, 23.01. 4:00 0
So, 23.01. 3:50 0
So, 23.01. 3:40 0
So, 23.01. 3:30 0
So, 23.01. 3:20 0
So, 23.01. 3:10 0
So, 23.01. 3:00 0
So, 23.01. 2:30 0
So, 23.01. 2:00 0
So, 23.01. 1:30 0
So, 23.01. 1:00 0
Link zu dieser Seite / Seite empfehlen

Das Wetter in ...